This is the latest recevied weather packets stored in our database for station/object K4AVM-13. If no packets are shown the sender has not sent any weather packets the latest 10 day(s).
| Time | Temp. | Humidity | Pressure | Rain* | Wind** | Luminosity | Snow |
|---|---|---|---|---|---|---|---|
| 1778007903 | 28.89° C | 30% | 1013.8 hPa | 0 mm | - | 586 W/m² | - |
| 1778007599 | 28.89° C | 32% | 1013.9 hPa | 0 mm | - | 608 W/m² | - |
| 1778007296 | 29.44° C | 31% | 1014 hPa | 0 mm | - | 619 W/m² | - |
| 1778006992 | 28.33° C | 32% | 1014.3 hPa | 0 mm | - | 629 W/m² | - |
| 1778006689 | 28.89° C | 30% | 1014.2 hPa | 0 mm | - | 638 W/m² | - |
| 1778006385 | 28.89° C | 30% | 1014.2 hPa | 0 mm | - | 640 W/m² | - |
| 1778006083 | 28.89° C | 30% | 1014.3 hPa | 0 mm | - | 654 W/m² | - |
| 1778005779 | 29.44° C | 30% | 1014.2 hPa | 0 mm | - | 650 W/m² | - |
| 1778005477 | 28.89° C | 30% | 1014.2 hPa | 0 mm | - | 658 W/m² | - |
| 1778005172 | 29.44° C | 32% | 1014.2 hPa | 0 mm | - | 661 W/m² | - |
| 1778004870 | 28.89° C | 33% | 1014.4 hPa | 0 mm | - | 666 W/m² | - |
| 1778004567 | 28.89° C | 33% | 1014.4 hPa | 0 mm | - | 674 W/m² | - |
| 1778004263 | 28.89° C | 34% | 1014.4 hPa | 0 mm | - | 679 W/m² | - |
| 1778003960 | 28.33° C | 35% | 1014.7 hPa | 0 mm | - | 676 W/m² | - |
| 1778003656 | 28.89° C | 34% | 1014.7 hPa | 0 mm | - | 686 W/m² | - |
| 1778003353 | 28.89° C | 33% | 1014.7 hPa | 0 mm | - | 689 W/m² | - |
| 1778003051 | 28.33° C | 35% | 1014.8 hPa | 0 mm | - | 695 W/m² | - |
| 1778002746 | 28.89° C | 37% | 1014.9 hPa | 0 mm | - | 695 W/m² | - |
| 1778002443 | 28.33° C | 36% | 1014.9 hPa | 0 mm | - | 698 W/m² | - |
| 1778002140 | 27.78° C | 38% | 1015 hPa | 0 mm | - | 697 W/m² | - |
| 1778001838 | 28.89° C | 38% | 1015 hPa | 0 mm | - | 698 W/m² | - |
| 1778001537 | 27.78° C | 40% | 1015.2 hPa | 0 mm | - | 706 W/m² | - |
| 1778001234 | 27.78° C | 42% | 1015.1 hPa | 0 mm | - | 705 W/m² | - |
| 1778000931 | 28.33° C | 40% | 1015.2 hPa | 0 mm | - | 701 W/m² | - |
| 1778000628 | 27.78° C | 42% | 1015.1 hPa | 0 mm | - | 703 W/m² | - |
* Rain latest hour (hover to see other rain measurements)
** Current wind speed in m/s (hover to see current wind gust speed)